Chauncey, New York
Current Conditions -  °F | °C
As of 10:56 AM on Thursday 30 Oct 2014 (Local Time) from KHPN Reporting Station
Scattered Clouds Scattered Clouds  
Wind Chill: 51°   Ceiling: Unl
Heat Index: 51°   Visibility: 10mi
Dew Point: 41°   Wind: 8mph
Humidity: 68%   Direction: 310°NW
Pressure: 29.98"   Gusts: NA
Location:  41.0065°N, 73.8443°W
Report Text: KHPN 301456Z 31007KT 10SM FEW035 SCT100 11/05 A2998 RMK AO2 SLP156 T01060050 51007
Loading
Personal Weather Stations






























Interactive Weather Map
Tropical Storm Tracking
New forecast layout! Learn more

10-Day Weather Forecast

Advertisements
Track Severe Weather on mobile